Terminal Aerodrome Forecast
Issued by NWS

Home | Current Version | Previous Version | Graphics & Text | Print | Product List | Glossary On
Versions: 1 2 3 4 5 6 7 8 9 10 11 12 13 14 15 16 17
000
FTUS43 KTOP 091100
TAFMHK
TAF
KMHK 091120Z 0912/1012 35003KT P6SM FEW060
     FM091500 13005KT P6SM SCT100
     FM100500 12003KT P6SM VCTS BKN080CB=

USA.gov is the U.S. government's official web portal to all federal, state and local government web resources and services.